sensor_id;sensor_type;location;lat;lon;timestamp;P1;durP1;ratioP1;P2;durP2;ratioP2
38053;SDS011;23859;50.672;7.164;2022-12-24T00:00:16;17.73;;;3.53;;
38053;SDS011;23859;50.672;7.164;2022-12-24T00:02:42;16.20;;;2.97;;
38053;SDS011;23859;50.672;7.164;2022-12-24T00:05:08;25.75;;;4.00;;
38053;SDS011;23859;50.672;7.164;2022-12-24T00:07:35;17.58;;;3.40;;
38053;SDS011;23859;50.672;7.164;2022-12-24T00:10:01;22.48;;;3.42;;
38053;SDS011;23859;50.672;7.164;2022-12-24T00:12:28;26.25;;;4.22;;
38053;SDS011;23859;50.672;7.164;2022-12-24T00:14:54;19.95;;;3.95;;
38053;SDS011;23859;50.672;7.164;2022-12-24T00:17:21;17.40;;;3.63;;
38053;SDS011;23859;50.672;7.164;2022-12-24T00:19:47;20.38;;;3.30;;
38053;SDS011;23859;50.672;7.164;2022-12-24T00:22:13;22.20;;;3.70;;
38053;SDS011;23859;50.672;7.164;2022-12-24T00:24:39;21.13;;;3.58;;
38053;SDS011;23859;50.672;7.164;2022-12-24T00:27:05;16.95;;;3.72;;
38053;SDS011;23859;50.672;7.164;2022-12-24T00:29:32;19.63;;;3.90;;
38053;SDS011;23859;50.672;7.164;2022-12-24T00:31:58;18.98;;;3.30;;
38053;SDS011;23859;50.672;7.164;2022-12-24T00:34:24;16.10;;;3.45;;
38053;SDS011;23859;50.672;7.164;2022-12-24T00:36:51;25.73;;;3.65;;
38053;SDS011;23859;50.672;7.164;2022-12-24T00:39:17;20.38;;;3.67;;
38053;SDS011;23859;50.672;7.164;2022-12-24T00:41:43;19.15;;;3.38;;
38053;SDS011;23859;50.672;7.164;2022-12-24T00:44:09;16.45;;;3.03;;
38053;SDS011;23859;50.672;7.164;2022-12-24T00:46:36;22.17;;;3.28;;
38053;SDS011;23859;50.672;7.164;2022-12-24T00:49:04;15.02;;;3.25;;
38053;SDS011;23859;50.672;7.164;2022-12-24T00:51:31;23.65;;;3.83;;
38053;SDS011;23859;50.672;7.164;2022-12-24T00:53:58;21.65;;;4.18;;
38053;SDS011;23859;50.672;7.164;2022-12-24T00:56:24;15.18;;;3.67;;
38053;SDS011;23859;50.672;7.164;2022-12-24T00:58:51;23.67;;;4.88;;
38053;SDS011;23859;50.672;7.164;2022-12-24T01:01:18;12.38;;;3.20;;
38053;SDS011;23859;50.672;7.164;2022-12-24T01:03:44;18.27;;;3.45;;
38053;SDS011;23859;50.672;7.164;2022-12-24T01:06:15;11.98;;;3.13;;
38053;SDS011;23859;50.672;7.164;2022-12-24T01:08:44;19.85;;;3.88;;
38053;SDS011;23859;50.672;7.164;2022-12-24T01:11:10;13.25;;;3.47;;
38053;SDS011;23859;50.672;7.164;2022-12-24T01:13:37;17.15;;;3.53;;
38053;SDS011;23859;50.672;7.164;2022-12-24T01:16:10;20.35;;;4.10;;
38053;SDS011;23859;50.672;7.164;2022-12-24T01:18:42;13.48;;;2.95;;
38053;SDS011;23859;50.672;7.164;2022-12-24T01:21:08;15.80;;;4.82;;
38053;SDS011;23859;50.672;7.164;2022-12-24T01:23:34;22.10;;;3.25;;
38053;SDS011;23859;50.672;7.164;2022-12-24T01:26:00;18.48;;;3.72;;
38053;SDS011;23859;50.672;7.164;2022-12-24T01:28:28;18.85;;;4.13;;
38053;SDS011;23859;50.672;7.164;2022-12-24T01:30:55;17.83;;;3.78;;
38053;SDS011;23859;50.672;7.164;2022-12-24T01:33:21;24.00;;;3.15;;
38053;SDS011;23859;50.672;7.164;2022-12-24T01:35:47;23.00;;;3.70;;
38053;SDS011;23859;50.672;7.164;2022-12-24T01:38:13;15.93;;;3.58;;
38053;SDS011;23859;50.672;7.164;2022-12-24T01:40:40;14.27;;;3.03;;
38053;SDS011;23859;50.672;7.164;2022-12-24T01:43:27;24.40;;;3.80;;
38053;SDS011;23859;50.672;7.164;2022-12-24T01:46:03;25.33;;;3.47;;
38053;SDS011;23859;50.672;7.164;2022-12-24T01:48:44;14.50;;;3.03;;
38053;SDS011;23859;50.672;7.164;2022-12-24T01:51:26;23.92;;;3.90;;
38053;SDS011;23859;50.672;7.164;2022-12-24T01:54:05;22.42;;;4.55;;
38053;SDS011;23859;50.672;7.164;2022-12-24T01:56:45;22.17;;;2.92;;
38053;SDS011;23859;50.672;7.164;2022-12-24T01:59:16;15.17;;;3.23;;
38053;SDS011;23859;50.672;7.164;2022-12-24T02:01:47;17.35;;;3.20;;
38053;SDS011;23859;50.672;7.164;2022-12-24T02:04:26;16.95;;;3.20;;
38053;SDS011;23859;50.672;7.164;2022-12-24T02:07:01;18.00;;;3.35;;
38053;SDS011;23859;50.672;7.164;2022-12-24T02:09:28;19.25;;;4.70;;
38053;SDS011;23859;50.672;7.164;2022-12-24T02:11:54;19.60;;;3.40;;
38053;SDS011;23859;50.672;7.164;2022-12-24T02:14:21;20.60;;;5.28;;
38053;SDS011;23859;50.672;7.164;2022-12-24T02:17:01;11.65;;;3.08;;
38053;SDS011;23859;50.672;7.164;2022-12-24T02:27:56;13.80;;;2.90;;
38053;SDS011;23859;50.672;7.164;2022-12-24T02:30:34;10.32;;;2.88;;
38053;SDS011;23859;50.672;7.164;2022-12-24T02:38:23;13.52;;;3.60;;
38053;SDS011;23859;50.672;7.164;2022-12-24T02:40:58;16.05;;;2.70;;
38053;SDS011;23859;50.672;7.164;2022-12-24T02:43:41;16.98;;;3.95;;
38053;SDS011;23859;50.672;7.164;2022-12-24T02:46:11;22.83;;;4.43;;
38053;SDS011;23859;50.672;7.164;2022-12-24T02:48:41;13.98;;;3.42;;
38053;SDS011;23859;50.672;7.164;2022-12-24T02:51:11;21.63;;;3.92;;
38053;SDS011;23859;50.672;7.164;2022-12-24T02:53:37;12.85;;;3.00;;
38053;SDS011;23859;50.672;7.164;2022-12-24T02:59:10;15.68;;;3.78;;
38053;SDS011;23859;50.672;7.164;2022-12-24T03:09:57;24.63;;;4.78;;
38053;SDS011;23859;50.672;7.164;2022-12-24T03:12:51;18.58;;;3.97;;
38053;SDS011;23859;50.672;7.164;2022-12-24T03:15:22;21.00;;;3.25;;
38053;SDS011;23859;50.672;7.164;2022-12-24T03:17:50;18.30;;;3.85;;
38053;SDS011;23859;50.672;7.164;2022-12-24T03:20:21;9.40;;;2.63;;
38053;SDS011;23859;50.672;7.164;2022-12-24T03:22:54;20.35;;;3.28;;
38053;SDS011;23859;50.672;7.164;2022-12-24T03:25:21;21.60;;;3.45;;
38053;SDS011;23859;50.672;7.164;2022-12-24T03:27:49;17.42;;;2.70;;
38053;SDS011;23859;50.672;7.164;2022-12-24T03:30:16;20.08;;;3.55;;
38053;SDS011;23859;50.672;7.164;2022-12-24T03:32:43;23.88;;;3.10;;
38053;SDS011;23859;50.672;7.164;2022-12-24T03:35:10;26.48;;;4.15;;
38053;SDS011;23859;50.672;7.164;2022-12-24T03:37:36;15.30;;;3.35;;
38053;SDS011;23859;50.672;7.164;2022-12-24T03:40:03;19.65;;;3.92;;
38053;SDS011;23859;50.672;7.164;2022-12-24T03:42:30;18.17;;;4.22;;
38053;SDS011;23859;50.672;7.164;2022-12-24T03:44:57;18.80;;;4.03;;
38053;SDS011;23859;50.672;7.164;2022-12-24T03:47:23;14.73;;;3.15;;
38053;SDS011;23859;50.672;7.164;2022-12-24T03:49:49;16.05;;;3.75;;
38053;SDS011;23859;50.672;7.164;2022-12-24T03:52:15;23.90;;;3.35;;
38053;SDS011;23859;50.672;7.164;2022-12-24T03:54:41;16.92;;;3.92;;
38053;SDS011;23859;50.672;7.164;2022-12-24T03:57:07;15.68;;;3.45;;
38053;SDS011;23859;50.672;7.164;2022-12-24T03:59:33;29.42;;;5.15;;
38053;SDS011;23859;50.672;7.164;2022-12-24T04:01:59;22.25;;;3.90;;
38053;SDS011;23859;50.672;7.164;2022-12-24T04:04:25;18.30;;;3.65;;
38053;SDS011;23859;50.672;7.164;2022-12-24T04:06:51;19.13;;;3.90;;
38053;SDS011;23859;50.672;7.164;2022-12-24T04:09:17;20.35;;;3.53;;
38053;SDS011;23859;50.672;7.164;2022-12-24T04:11:43;15.38;;;3.70;;
38053;SDS011;23859;50.672;7.164;2022-12-24T04:14:09;21.95;;;4.07;;
38053;SDS011;23859;50.672;7.164;2022-12-24T04:16:35;14.50;;;3.67;;
38053;SDS011;23859;50.672;7.164;2022-12-24T04:19:01;22.65;;;4.47;;
38053;SDS011;23859;50.672;7.164;2022-12-24T04:21:27;21.75;;;4.25;;
38053;SDS011;23859;50.672;7.164;2022-12-24T04:23:53;26.30;;;5.35;;
38053;SDS011;23859;50.672;7.164;2022-12-24T04:26:19;16.52;;;4.18;;
38053;SDS011;23859;50.672;7.164;2022-12-24T04:28:45;27.70;;;4.95;;
38053;SDS011;23859;50.672;7.164;2022-12-24T04:31:13;23.05;;;5.00;;
38053;SDS011;23859;50.672;7.164;2022-12-24T04:33:41;26.73;;;4.85;;
38053;SDS011;23859;50.672;7.164;2022-12-24T04:36:13;17.92;;;4.07;;
38053;SDS011;23859;50.672;7.164;2022-12-24T04:38:41;23.20;;;4.40;;
38053;SDS011;23859;50.672;7.164;2022-12-24T04:41:12;17.00;;;3.83;;
38053;SDS011;23859;50.672;7.164;2022-12-24T04:43:43;22.73;;;4.57;;
38053;SDS011;23859;50.672;7.164;2022-12-24T04:46:16;20.20;;;4.15;;
38053;SDS011;23859;50.672;7.164;2022-12-24T04:48:47;19.92;;;3.42;;
38053;SDS011;23859;50.672;7.164;2022-12-24T04:51:15;12.07;;;2.78;;
38053;SDS011;23859;50.672;7.164;2022-12-24T04:53:42;11.20;;;2.38;;
38053;SDS011;23859;50.672;7.164;2022-12-24T04:56:15;13.88;;;1.95;;
38053;SDS011;23859;50.672;7.164;2022-12-24T04:58:49;11.90;;;3.17;;
38053;SDS011;23859;50.672;7.164;2022-12-24T05:01:19;9.35;;;2.47;;
38053;SDS011;23859;50.672;7.164;2022-12-24T05:03:47;12.13;;;2.42;;
38053;SDS011;23859;50.672;7.164;2022-12-24T05:06:14;13.05;;;2.13;;
38053;SDS011;23859;50.672;7.164;2022-12-24T05:08:44;8.38;;;2.13;;
38053;SDS011;23859;50.672;7.164;2022-12-24T05:11:11;8.98;;;2.05;;
38053;SDS011;23859;50.672;7.164;2022-12-24T05:13:39;9.32;;;1.95;;
38053;SDS011;23859;50.672;7.164;2022-12-24T05:16:06;8.90;;;2.25;;
38053;SDS011;23859;50.672;7.164;2022-12-24T05:18:33;11.90;;;2.55;;
38053;SDS011;23859;50.672;7.164;2022-12-24T05:20:59;10.48;;;3.10;;
38053;SDS011;23859;50.672;7.164;2022-12-24T05:23:25;14.40;;;2.58;;
38053;SDS011;23859;50.672;7.164;2022-12-24T05:26:19;9.30;;;2.45;;
38053;SDS011;23859;50.672;7.164;2022-12-24T05:28:56;9.85;;;2.10;;
38053;SDS011;23859;50.672;7.164;2022-12-24T05:31:24;17.73;;;3.10;;
38053;SDS011;23859;50.672;7.164;2022-12-24T05:33:52;13.45;;;3.10;;
38053;SDS011;23859;50.672;7.164;2022-12-24T05:36:18;21.00;;;3.40;;
38053;SDS011;23859;50.672;7.164;2022-12-24T05:38:45;13.35;;;2.80;;
38053;SDS011;23859;50.672;7.164;2022-12-24T05:41:11;17.10;;;3.42;;
38053;SDS011;23859;50.672;7.164;2022-12-24T05:43:38;13.82;;;3.88;;
38053;SDS011;23859;50.672;7.164;2022-12-24T05:46:05;21.08;;;3.10;;
38053;SDS011;23859;50.672;7.164;2022-12-24T05:48:33;12.40;;;3.33;;
38053;SDS011;23859;50.672;7.164;2022-12-24T05:51:02;10.48;;;2.30;;
38053;SDS011;23859;50.672;7.164;2022-12-24T05:53:30;9.52;;;2.45;;
38053;SDS011;23859;50.672;7.164;2022-12-24T05:56:06;13.05;;;2.80;;
38053;SDS011;23859;50.672;7.164;2022-12-24T05:58:37;13.70;;;2.58;;
38053;SDS011;23859;50.672;7.164;2022-12-24T06:01:04;9.55;;;2.30;;
38053;SDS011;23859;50.672;7.164;2022-12-24T06:03:31;12.38;;;2.88;;
38053;SDS011;23859;50.672;7.164;2022-12-24T06:06:01;18.67;;;3.42;;
38053;SDS011;23859;50.672;7.164;2022-12-24T06:08:47;5.97;;;1.80;;
38053;SDS011;23859;50.672;7.164;2022-12-24T06:11:15;4.32;;;1.52;;
38053;SDS011;23859;50.672;7.164;2022-12-24T06:13:43;13.07;;;2.42;;
38053;SDS011;23859;50.672;7.164;2022-12-24T06:16:13;14.70;;;1.85;;
38053;SDS011;23859;50.672;7.164;2022-12-24T06:18:41;4.10;;;1.50;;
38053;SDS011;23859;50.672;7.164;2022-12-24T06:21:07;8.95;;;1.80;;
38053;SDS011;23859;50.672;7.164;2022-12-24T06:23:36;8.55;;;2.28;;
38053;SDS011;23859;50.672;7.164;2022-12-24T06:26:03;7.88;;;1.50;;
38053;SDS011;23859;50.672;7.164;2022-12-24T06:28:31;5.50;;;2.17;;
38053;SDS011;23859;50.672;7.164;2022-12-24T06:30:59;7.60;;;1.80;;
38053;SDS011;23859;50.672;7.164;2022-12-24T06:33:26;7.70;;;1.40;;
38053;SDS011;23859;50.672;7.164;2022-12-24T06:35:52;7.40;;;1.40;;
38053;SDS011;23859;50.672;7.164;2022-12-24T06:38:18;8.80;;;2.17;;
38053;SDS011;23859;50.672;7.164;2022-12-24T06:40:45;6.53;;;2.03;;
38053;SDS011;23859;50.672;7.164;2022-12-24T06:43:12;5.43;;;1.20;;
38053;SDS011;23859;50.672;7.164;2022-12-24T06:45:39;6.25;;;1.52;;
38053;SDS011;23859;50.672;7.164;2022-12-24T06:48:09;4.82;;;1.52;;
38053;SDS011;23859;50.672;7.164;2022-12-24T06:50:35;4.63;;;2.15;;
38053;SDS011;23859;50.672;7.164;2022-12-24T06:53:01;13.82;;;3.10;;
38053;SDS011;23859;50.672;7.164;2022-12-24T06:55:27;14.65;;;2.67;;
38053;SDS011;23859;50.672;7.164;2022-12-24T06:57:53;13.85;;;3.47;;
38053;SDS011;23859;50.672;7.164;2022-12-24T07:00:19;13.07;;;2.97;;
38053;SDS011;23859;50.672;7.164;2022-12-24T07:02:46;7.07;;;2.50;;
38053;SDS011;23859;50.672;7.164;2022-12-24T07:05:12;8.35;;;2.63;;
38053;SDS011;23859;50.672;7.164;2022-12-24T07:07:42;8.80;;;2.63;;
38053;SDS011;23859;50.672;7.164;2022-12-24T07:10:10;13.82;;;3.10;;
38053;SDS011;23859;50.672;7.164;2022-12-24T07:12:40;13.25;;;3.13;;
38053;SDS011;23859;50.672;7.164;2022-12-24T07:15:06;10.23;;;3.30;;
38053;SDS011;23859;50.672;7.164;2022-12-24T07:17:33;15.00;;;2.72;;
38053;SDS011;23859;50.672;7.164;2022-12-24T07:19:59;19.33;;;2.70;;
38053;SDS011;23859;50.672;7.164;2022-12-24T07:22:26;14.07;;;3.55;;
38053;SDS011;23859;50.672;7.164;2022-12-24T07:24:52;28.88;;;5.18;;
38053;SDS011;23859;50.672;7.164;2022-12-24T07:27:18;12.95;;;3.08;;
38053;SDS011;23859;50.672;7.164;2022-12-24T07:29:44;14.68;;;2.83;;
38053;SDS011;23859;50.672;7.164;2022-12-24T07:32:10;13.15;;;3.65;;
38053;SDS011;23859;50.672;7.164;2022-12-24T07:34:36;11.00;;;3.13;;
38053;SDS011;23859;50.672;7.164;2022-12-24T07:37:03;14.23;;;2.95;;
38053;SDS011;23859;50.672;7.164;2022-12-24T07:39:30;18.23;;;4.45;;
38053;SDS011;23859;50.672;7.164;2022-12-24T07:41:56;17.10;;;3.40;;
38053;SDS011;23859;50.672;7.164;2022-12-24T07:44:22;21.67;;;4.38;;
38053;SDS011;23859;50.672;7.164;2022-12-24T07:46:49;21.30;;;5.07;;
38053;SDS011;23859;50.672;7.164;2022-12-24T07:49:15;28.50;;;5.82;;
38053;SDS011;23859;50.672;7.164;2022-12-24T07:51:41;18.45;;;6.03;;
38053;SDS011;23859;50.672;7.164;2022-12-24T07:54:07;23.48;;;5.82;;
38053;SDS011;23859;50.672;7.164;2022-12-24T07:56:33;24.27;;;5.90;;
38053;SDS011;23859;50.672;7.164;2022-12-24T07:58:59;15.93;;;4.85;;
38053;SDS011;23859;50.672;7.164;2022-12-24T08:01:25;25.70;;;5.57;;
38053;SDS011;23859;50.672;7.164;2022-12-24T08:03:51;18.83;;;5.45;;
38053;SDS011;23859;50.672;7.164;2022-12-24T08:06:18;26.35;;;7.28;;
38053;SDS011;23859;50.672;7.164;2022-12-24T08:08:47;20.25;;;5.28;;
38053;SDS011;23859;50.672;7.164;2022-12-24T08:11:14;25.42;;;5.32;;
38053;SDS011;23859;50.672;7.164;2022-12-24T08:13:40;23.77;;;5.63;;
38053;SDS011;23859;50.672;7.164;2022-12-24T08:16:06;21.73;;;5.22;;
38053;SDS011;23859;50.672;7.164;2022-12-24T08:18:32;18.13;;;5.55;;
38053;SDS011;23859;50.672;7.164;2022-12-24T08:20:58;16.95;;;5.60;;
38053;SDS011;23859;50.672;7.164;2022-12-24T08:23:24;17.35;;;4.50;;
38053;SDS011;23859;50.672;7.164;2022-12-24T08:25:50;23.23;;;5.38;;
38053;SDS011;23859;50.672;7.164;2022-12-24T08:28:17;18.77;;;5.43;;
38053;SDS011;23859;50.672;7.164;2022-12-24T08:30:44;17.85;;;5.43;;
38053;SDS011;23859;50.672;7.164;2022-12-24T08:33:12;21.45;;;4.72;;
38053;SDS011;23859;50.672;7.164;2022-12-24T08:35:38;23.55;;;5.93;;
38053;SDS011;23859;50.672;7.164;2022-12-24T08:38:04;23.38;;;6.20;;
38053;SDS011;23859;50.672;7.164;2022-12-24T08:40:30;31.15;;;11.35;;
38053;SDS011;23859;50.672;7.164;2022-12-24T08:42:56;19.38;;;4.45;;
38053;SDS011;23859;50.672;7.164;2022-12-24T08:45:22;24.42;;;5.03;;
38053;SDS011;23859;50.672;7.164;2022-12-24T08:47:48;16.67;;;4.53;;
38053;SDS011;23859;50.672;7.164;2022-12-24T08:50:14;28.35;;;8.32;;
38053;SDS011;23859;50.672;7.164;2022-12-24T08:52:41;24.98;;;6.00;;
38053;SDS011;23859;50.672;7.164;2022-12-24T08:55:07;14.75;;;5.13;;
38053;SDS011;23859;50.672;7.164;2022-12-24T08:57:36;25.73;;;6.80;;
38053;SDS011;23859;50.672;7.164;2022-12-24T09:00:03;22.20;;;5.45;;
38053;SDS011;23859;50.672;7.164;2022-12-24T09:02:31;14.70;;;4.95;;
38053;SDS011;23859;50.672;7.164;2022-12-24T09:04:57;18.23;;;5.57;;
38053;SDS011;23859;50.672;7.164;2022-12-24T09:07:23;18.23;;;5.72;;
38053;SDS011;23859;50.672;7.164;2022-12-24T09:09:49;18.40;;;4.97;;
38053;SDS011;23859;50.672;7.164;2022-12-24T09:12:15;15.23;;;5.90;;
38053;SDS011;23859;50.672;7.164;2022-12-24T09:14:41;22.45;;;6.18;;
38053;SDS011;23859;50.672;7.164;2022-12-24T09:17:07;23.55;;;5.38;;
38053;SDS011;23859;50.672;7.164;2022-12-24T09:19:33;19.17;;;5.10;;
38053;SDS011;23859;50.672;7.164;2022-12-24T09:21:59;19.02;;;3.63;;
38053;SDS011;23859;50.672;7.164;2022-12-24T09:24:25;16.75;;;3.95;;
38053;SDS011;23859;50.672;7.164;2022-12-24T09:26:51;21.02;;;4.70;;
38053;SDS011;23859;50.672;7.164;2022-12-24T09:29:17;23.85;;;4.93;;
38053;SDS011;23859;50.672;7.164;2022-12-24T09:31:43;16.98;;;4.03;;
38053;SDS011;23859;50.672;7.164;2022-12-24T09:34:10;26.60;;;4.28;;
38053;SDS011;23859;50.672;7.164;2022-12-24T09:36:36;17.75;;;4.32;;
38053;SDS011;23859;50.672;7.164;2022-12-24T09:39:02;14.10;;;4.80;;
38053;SDS011;23859;50.672;7.164;2022-12-24T09:41:31;15.93;;;4.30;;
38053;SDS011;23859;50.672;7.164;2022-12-24T09:44:22;22.67;;;3.80;;
38053;SDS011;23859;50.672;7.164;2022-12-24T09:46:57;21.23;;;3.80;;
38053;SDS011;23859;50.672;7.164;2022-12-24T09:49:35;18.07;;;4.10;;
38053;SDS011;23859;50.672;7.164;2022-12-24T09:52:05;18.77;;;3.80;;
38053;SDS011;23859;50.672;7.164;2022-12-24T09:54:37;15.27;;;3.50;;
38053;SDS011;23859;50.672;7.164;2022-12-24T09:57:22;20.00;;;3.92;;
38053;SDS011;23859;50.672;7.164;2022-12-24T09:59:54;17.90;;;3.45;;
38053;SDS011;23859;50.672;7.164;2022-12-24T10:02:20;20.20;;;4.30;;
38053;SDS011;23859;50.672;7.164;2022-12-24T10:04:46;25.10;;;4.95;;
38053;SDS011;23859;50.672;7.164;2022-12-24T10:10:02;15.20;;;3.90;;
38053;SDS011;23859;50.672;7.164;2022-12-24T10:12:40;19.90;;;3.85;;
38053;SDS011;23859;50.672;7.164;2022-12-24T10:18:08;17.65;;;3.13;;
38053;SDS011;23859;50.672;7.164;2022-12-24T10:21:04;20.77;;;3.13;;
38053;SDS011;23859;50.672;7.164;2022-12-24T10:23:48;13.07;;;4.07;;
38053;SDS011;23859;50.672;7.164;2022-12-24T10:26:37;14.63;;;3.40;;
38053;SDS011;23859;50.672;7.164;2022-12-24T10:29:29;26.77;;;4.95;;
38053;SDS011;23859;50.672;7.164;2022-12-24T10:34:45;24.10;;;4.88;;
38053;SDS011;23859;50.672;7.164;2022-12-24T10:37:22;23.33;;;4.13;;
38053;SDS011;23859;50.672;7.164;2022-12-24T10:39:50;24.88;;;4.20;;
38053;SDS011;23859;50.672;7.164;2022-12-24T10:42:16;19.17;;;4.25;;
38053;SDS011;23859;50.672;7.164;2022-12-24T10:44:47;21.83;;;4.10;;
38053;SDS011;23859;50.672;7.164;2022-12-24T10:47:18;17.42;;;3.65;;
38053;SDS011;23859;50.672;7.164;2022-12-24T10:49:47;28.25;;;3.75;;
38053;SDS011;23859;50.672;7.164;2022-12-24T10:52:37;27.48;;;3.60;;
38053;SDS011;23859;50.672;7.164;2022-12-24T10:55:10;17.65;;;3.22;;
38053;SDS011;23859;50.672;7.164;2022-12-24T10:57:42;26.35;;;4.15;;
38053;SDS011;23859;50.672;7.164;2022-12-24T11:00:20;20.70;;;4.35;;
38053;SDS011;23859;50.672;7.164;2022-12-24T11:02:48;22.75;;;3.75;;
38053;SDS011;23859;50.672;7.164;2022-12-24T11:05:31;18.08;;;3.08;;
38053;SDS011;23859;50.672;7.164;2022-12-24T11:07:59;27.85;;;4.72;;
38053;SDS011;23859;50.672;7.164;2022-12-24T11:10:41;25.55;;;4.65;;
38053;SDS011;23859;50.672;7.164;2022-12-24T11:13:31;21.48;;;4.32;;
38053;SDS011;23859;50.672;7.164;2022-12-24T11:16:20;21.90;;;4.95;;
38053;SDS011;23859;50.672;7.164;2022-12-24T11:18:54;19.88;;;4.22;;
38053;SDS011;23859;50.672;7.164;2022-12-24T11:26:51;20.52;;;3.45;;
38053;SDS011;23859;50.672;7.164;2022-12-24T11:29:20;24.85;;;4.03;;
38053;SDS011;23859;50.672;7.164;2022-12-24T11:31:48;21.45;;;4.03;;
38053;SDS011;23859;50.672;7.164;2022-12-24T11:34:34;19.70;;;4.90;;
38053;SDS011;23859;50.672;7.164;2022-12-24T11:37:08;19.10;;;4.97;;
38053;SDS011;23859;50.672;7.164;2022-12-24T11:39:51;25.33;;;4.70;;
38053;SDS011;23859;50.672;7.164;2022-12-24T11:45:04;25.73;;;5.13;;
38053;SDS011;23859;50.672;7.164;2022-12-24T11:47:41;22.52;;;4.75;;
38053;SDS011;23859;50.672;7.164;2022-12-24T12:00:47;17.23;;;3.42;;
38053;SDS011;23859;50.672;7.164;2022-12-24T12:03:38;21.00;;;4.57;;
38053;SDS011;23859;50.672;7.164;2022-12-24T12:06:07;26.67;;;4.57;;
38053;SDS011;23859;50.672;7.164;2022-12-24T12:09:02;16.73;;;3.58;;
38053;SDS011;23859;50.672;7.164;2022-12-24T12:11:31;22.52;;;4.28;;
38053;SDS011;23859;50.672;7.164;2022-12-24T12:13:59;17.98;;;5.20;;
38053;SDS011;23859;50.672;7.164;2022-12-24T12:16:39;25.17;;;4.53;;
38053;SDS011;23859;50.672;7.164;2022-12-24T12:19:34;24.30;;;4.43;;
38053;SDS011;23859;50.672;7.164;2022-12-24T12:22:11;33.58;;;5.72;;
38053;SDS011;23859;50.672;7.164;2022-12-24T12:24:48;28.00;;;4.18;;
38053;SDS011;23859;50.672;7.164;2022-12-24T12:30:01;32.83;;;5.85;;
38053;SDS011;23859;50.672;7.164;2022-12-24T12:37:51;27.92;;;5.93;;
38053;SDS011;23859;50.672;7.164;2022-12-24T12:40:20;21.00;;;4.65;;
38053;SDS011;23859;50.672;7.164;2022-12-24T12:43:01;19.80;;;3.90;;
38053;SDS011;23859;50.672;7.164;2022-12-24T12:51:43;23.67;;;5.57;;
38053;SDS011;23859;50.672;7.164;2022-12-24T12:54:32;23.95;;;5.22;;
38053;SDS011;23859;50.672;7.164;2022-12-24T12:57:16;33.78;;;5.63;;
38053;SDS011;23859;50.672;7.164;2022-12-24T12:59:54;25.10;;;4.45;;
38053;SDS011;23859;50.672;7.164;2022-12-24T13:02:44;21.88;;;5.63;;
38053;SDS011;23859;50.672;7.164;2022-12-24T13:21:46;21.13;;;3.53;;
38053;SDS011;23859;50.672;7.164;2022-12-24T13:24:20;17.20;;;4.15;;
38053;SDS011;23859;50.672;7.164;2022-12-24T13:27:03;28.20;;;5.82;;
38053;SDS011;23859;50.672;7.164;2022-12-24T13:29:56;27.55;;;4.55;;
38053;SDS011;23859;50.672;7.164;2022-12-24T13:37:31;22.27;;;4.00;;
38053;SDS011;23859;50.672;7.164;2022-12-24T13:48:01;23.17;;;4.03;;
38053;SDS011;23859;50.672;7.164;2022-12-24T13:58:33;22.23;;;5.30;;
38053;SDS011;23859;50.672;7.164;2022-12-24T14:01:12;29.63;;;5.63;;
38053;SDS011;23859;50.672;7.164;2022-12-24T14:03:47;29.90;;;5.03;;
38053;SDS011;23859;50.672;7.164;2022-12-24T14:08:48;22.92;;;5.38;;
38053;SDS011;23859;50.672;7.164;2022-12-24T14:11:18;26.92;;;5.07;;
38053;SDS011;23859;50.672;7.164;2022-12-24T14:16:13;23.92;;;4.38;;
38053;SDS011;23859;50.672;7.164;2022-12-24T14:19:00;23.00;;;5.57;;
38053;SDS011;23859;50.672;7.164;2022-12-24T14:21:41;20.58;;;5.03;;
38053;SDS011;23859;50.672;7.164;2022-12-24T14:24:26;27.60;;;6.05;;
38053;SDS011;23859;50.672;7.164;2022-12-24T14:27:15;16.85;;;5.32;;
38053;SDS011;23859;50.672;7.164;2022-12-24T14:29:58;27.60;;;4.47;;
38053;SDS011;23859;50.672;7.164;2022-12-24T14:32:32;21.80;;;4.88;;
38053;SDS011;23859;50.672;7.164;2022-12-24T14:35:04;22.92;;;5.93;;
38053;SDS011;23859;50.672;7.164;2022-12-24T14:37:30;21.30;;;5.20;;
38053;SDS011;23859;50.672;7.164;2022-12-24T14:39:56;25.10;;;6.90;;
38053;SDS011;23859;50.672;7.164;2022-12-24T14:42:41;26.48;;;5.05;;
38053;SDS011;23859;50.672;7.164;2022-12-24T14:45:35;23.90;;;5.05;;
38053;SDS011;23859;50.672;7.164;2022-12-24T14:48:22;37.10;;;6.50;;
38053;SDS011;23859;50.672;7.164;2022-12-24T14:56:37;28.15;;;4.55;;
38053;SDS011;23859;50.672;7.164;2022-12-24T14:59:16;21.25;;;5.47;;
38053;SDS011;23859;50.672;7.164;2022-12-24T15:01:43;29.98;;;4.90;;
38053;SDS011;23859;50.672;7.164;2022-12-24T15:06:37;22.67;;;5.72;;
38053;SDS011;23859;50.672;7.164;2022-12-24T15:09:31;31.63;;;5.80;;
38053;SDS011;23859;50.672;7.164;2022-12-24T15:11:59;24.15;;;5.43;;
38053;SDS011;23859;50.672;7.164;2022-12-24T15:14:28;19.23;;;5.78;;
38053;SDS011;23859;50.672;7.164;2022-12-24T15:17:02;15.25;;;6.95;;
38053;SDS011;23859;50.672;7.164;2022-12-24T15:19:32;22.20;;;6.93;;
38053;SDS011;23859;50.672;7.164;2022-12-24T15:22:07;26.00;;;6.93;;
38053;SDS011;23859;50.672;7.164;2022-12-24T15:24:41;28.77;;;7.18;;
38053;SDS011;23859;50.672;7.164;2022-12-24T15:27:14;30.42;;;7.90;;
38053;SDS011;23859;50.672;7.164;2022-12-24T15:29:44;24.23;;;7.55;;
38053;SDS011;23859;50.672;7.164;2022-12-24T15:32:12;23.23;;;7.07;;
38053;SDS011;23859;50.672;7.164;2022-12-24T15:34:40;30.38;;;7.80;;
38053;SDS011;23859;50.672;7.164;2022-12-24T15:40:24;22.05;;;7.03;;
38053;SDS011;23859;50.672;7.164;2022-12-24T15:42:44;30.00;;;8.60;;
38053;SDS011;23859;50.672;7.164;2022-12-24T15:45:29;32.47;;;8.93;;
38053;SDS011;23859;50.672;7.164;2022-12-24T15:48:06;27.60;;;7.05;;
38053;SDS011;23859;50.672;7.164;2022-12-24T15:50:47;24.80;;;8.88;;
38053;SDS011;23859;50.672;7.164;2022-12-24T15:53:20;26.65;;;9.90;;
38053;SDS011;23859;50.672;7.164;2022-12-24T15:56:00;38.20;;;9.80;;
38053;SDS011;23859;50.672;7.164;2022-12-24T15:58:29;26.98;;;9.30;;
38053;SDS011;23859;50.672;7.164;2022-12-24T16:03:29;16.73;;;5.10;;
38053;SDS011;23859;50.672;7.164;2022-12-24T16:08:28;24.27;;;5.90;;
38053;SDS011;23859;50.672;7.164;2022-12-24T16:11:06;29.30;;;6.88;;
38053;SDS011;23859;50.672;7.164;2022-12-24T16:13:37;26.27;;;6.50;;
38053;SDS011;23859;50.672;7.164;2022-12-24T16:16:16;18.88;;;5.68;;
38053;SDS011;23859;50.672;7.164;2022-12-24T16:18:50;29.67;;;5.95;;
38053;SDS011;23859;50.672;7.164;2022-12-24T16:23:56;19.75;;;5.68;;
38053;SDS011;23859;50.672;7.164;2022-12-24T16:26:33;17.75;;;5.50;;
38053;SDS011;23859;50.672;7.164;2022-12-24T16:29:00;31.25;;;7.05;;
38053;SDS011;23859;50.672;7.164;2022-12-24T16:31:27;25.42;;;7.30;;
38053;SDS011;23859;50.672;7.164;2022-12-24T16:33:59;26.48;;;8.95;;
38053;SDS011;23859;50.672;7.164;2022-12-24T16:36:26;27.75;;;10.20;;
38053;SDS011;23859;50.672;7.164;2022-12-24T16:38:54;33.20;;;10.98;;
38053;SDS011;23859;50.672;7.164;2022-12-24T16:41:40;35.03;;;9.48;;
38053;SDS011;23859;50.672;7.164;2022-12-24T16:44:25;28.95;;;10.10;;
38053;SDS011;23859;50.672;7.164;2022-12-24T16:46:51;28.63;;;8.88;;
38053;SDS011;23859;50.672;7.164;2022-12-24T16:49:19;31.40;;;8.02;;
38053;SDS011;23859;50.672;7.164;2022-12-24T16:51:47;26.48;;;9.35;;
38053;SDS011;23859;50.672;7.164;2022-12-24T16:54:13;20.85;;;8.45;;
38053;SDS011;23859;50.672;7.164;2022-12-24T16:56:40;36.40;;;9.25;;
38053;SDS011;23859;50.672;7.164;2022-12-24T16:59:16;22.13;;;7.85;;
38053;SDS011;23859;50.672;7.164;2022-12-24T17:01:45;27.10;;;9.88;;
38053;SDS011;23859;50.672;7.164;2022-12-24T17:04:12;23.48;;;9.15;;